sensor_id;sensor_type;location;lat;lon;timestamp;P1;durP1;ratioP1;P2;durP2;ratioP2
11618;SDS011;5865;48.776;9.280;2022-10-24T00:04:57;5.10;;;1.20;;
11618;SDS011;5865;48.776;9.280;2022-10-24T00:07:24;5.75;;;1.33;;
11618;SDS011;5865;48.776;9.280;2022-10-24T00:09:51;3.35;;;1.35;;
11618;SDS011;5865;48.776;9.280;2022-10-24T00:12:32;3.60;;;1.17;;
11618;SDS011;5865;48.776;9.280;2022-10-24T00:15:13;4.80;;;1.45;;
11618;SDS011;5865;48.776;9.280;2022-10-24T00:17:41;3.58;;;1.33;;
11618;SDS011;5865;48.776;9.280;2022-10-24T01:08:14;4.00;;;1.17;;
11618;SDS011;5865;48.776;9.280;2022-10-24T01:10:59;4.47;;;1.08;;
11618;SDS011;5865;48.776;9.280;2022-10-24T01:13:53;3.00;;;1.15;;
11618;SDS011;5865;48.776;9.280;2022-10-24T01:16:43;3.47;;;1.50;;
11618;SDS011;5865;48.776;9.280;2022-10-24T01:19:18;5.13;;;1.60;;
11618;SDS011;5865;48.776;9.280;2022-10-24T01:22:10;3.05;;;1.40;;
11618;SDS011;5865;48.776;9.280;2022-10-24T01:24:48;3.90;;;1.15;;
11618;SDS011;5865;48.776;9.280;2022-10-24T01:27:42;6.13;;;1.60;;
11618;SDS011;5865;48.776;9.280;2022-10-24T01:30:22;5.00;;;1.52;;
11618;SDS011;5865;48.776;9.280;2022-10-24T01:32:54;4.72;;;1.52;;
11618;SDS011;5865;48.776;9.280;2022-10-24T01:35:27;3.97;;;1.25;;
11618;SDS011;5865;48.776;9.280;2022-10-24T01:38:16;3.80;;;1.42;;
11618;SDS011;5865;48.776;9.280;2022-10-24T01:40:48;5.70;;;1.63;;
11618;SDS011;5865;48.776;9.280;2022-10-24T01:43:21;2.33;;;1.40;;
11618;SDS011;5865;48.776;9.280;2022-10-24T01:45:53;2.90;;;1.40;;
11618;SDS011;5865;48.776;9.280;2022-10-24T01:48:23;5.63;;;1.50;;
11618;SDS011;5865;48.776;9.280;2022-10-24T01:50:51;5.57;;;1.52;;
11618;SDS011;5865;48.776;9.280;2022-10-24T01:53:19;6.07;;;1.60;;
11618;SDS011;5865;48.776;9.280;2022-10-24T01:55:48;5.65;;;1.60;;
11618;SDS011;5865;48.776;9.280;2022-10-24T01:58:16;6.10;;;1.63;;
11618;SDS011;5865;48.776;9.280;2022-10-24T02:00:43;5.57;;;1.60;;
11618;SDS011;5865;48.776;9.280;2022-10-24T02:15:49;4.22;;;1.42;;
11618;SDS011;5865;48.776;9.280;2022-10-24T02:18:18;4.07;;;1.50;;
11618;SDS011;5865;48.776;9.280;2022-10-24T02:20:51;4.13;;;1.38;;
11618;SDS011;5865;48.776;9.280;2022-10-24T02:23:36;5.60;;;1.45;;
11618;SDS011;5865;48.776;9.280;2022-10-24T02:26:10;2.38;;;1.08;;
11618;SDS011;5865;48.776;9.280;2022-10-24T02:28:42;8.48;;;1.58;;
11618;SDS011;5865;48.776;9.280;2022-10-24T02:31:13;3.75;;;1.25;;
11618;SDS011;5865;48.776;9.280;2022-10-24T02:33:52;4.07;;;1.58;;
11618;SDS011;5865;48.776;9.280;2022-10-24T02:36:21;6.35;;;1.38;;
11618;SDS011;5865;48.776;9.280;2022-10-24T02:38:52;2.88;;;1.30;;
11618;SDS011;5865;48.776;9.280;2022-10-24T02:41:22;4.53;;;1.45;;
11618;SDS011;5865;48.776;9.280;2022-10-24T02:56:36;3.30;;;1.40;;
11618;SDS011;5865;48.776;9.280;2022-10-24T02:59:20;5.93;;;1.52;;
11618;SDS011;5865;48.776;9.280;2022-10-24T03:02:01;5.10;;;2.13;;
11618;SDS011;5865;48.776;9.280;2022-10-24T03:04:36;5.10;;;1.70;;
11618;SDS011;5865;48.776;9.280;2022-10-24T03:07:17;5.22;;;1.67;;
11618;SDS011;5865;48.776;9.280;2022-10-24T03:09:44;7.18;;;1.67;;
11618;SDS011;5865;48.776;9.280;2022-10-24T03:12:23;3.20;;;1.60;;
11618;SDS011;5865;48.776;9.280;2022-10-24T03:15:04;6.38;;;1.77;;
11618;SDS011;5865;48.776;9.280;2022-10-24T03:17:45;5.05;;;1.80;;
11618;SDS011;5865;48.776;9.280;2022-10-24T03:20:26;10.05;;;2.20;;
11618;SDS011;5865;48.776;9.280;2022-10-24T03:22:53;8.13;;;1.60;;
11618;SDS011;5865;48.776;9.280;2022-10-24T03:25:20;5.88;;;1.83;;
11618;SDS011;5865;48.776;9.280;2022-10-24T03:27:49;4.57;;;1.73;;
11618;SDS011;5865;48.776;9.280;2022-10-24T03:30:30;4.95;;;1.52;;
11618;SDS011;5865;48.776;9.280;2022-10-24T03:33:11;9.38;;;2.00;;
11618;SDS011;5865;48.776;9.280;2022-10-24T03:35:52;5.47;;;2.00;;
11618;SDS011;5865;48.776;9.280;2022-10-24T03:38:21;8.23;;;2.03;;
11618;SDS011;5865;48.776;9.280;2022-10-24T03:40:49;6.47;;;1.80;;
11618;SDS011;5865;48.776;9.280;2022-10-24T03:43:21;6.95;;;2.40;;
11618;SDS011;5865;48.776;9.280;2022-10-24T03:45:48;5.75;;;2.20;;
11618;SDS011;5865;48.776;9.280;2022-10-24T03:48:16;5.68;;;1.85;;
11618;SDS011;5865;48.776;9.280;2022-10-24T03:50:56;4.93;;;1.95;;
11618;SDS011;5865;48.776;9.280;2022-10-24T03:53:37;7.15;;;1.98;;
11618;SDS011;5865;48.776;9.280;2022-10-24T03:56:13;7.18;;;2.20;;
11618;SDS011;5865;48.776;9.280;2022-10-24T04:39:42;9.00;;;3.03;;
11618;SDS011;5865;48.776;9.280;2022-10-24T04:42:23;8.30;;;2.35;;
11618;SDS011;5865;48.776;9.280;2022-10-24T04:45:05;6.55;;;2.72;;
11618;SDS011;5865;48.776;9.280;2022-10-24T04:47:46;7.40;;;2.25;;
11618;SDS011;5865;48.776;9.280;2022-10-24T04:50:13;7.57;;;2.08;;
11618;SDS011;5865;48.776;9.280;2022-10-24T05:02:06;7.22;;;2.15;;
11618;SDS011;5865;48.776;9.280;2022-10-24T05:04:47;6.20;;;2.00;;
11618;SDS011;5865;48.776;9.280;2022-10-24T05:07:29;6.15;;;1.98;;
11618;SDS011;5865;48.776;9.280;2022-10-24T05:10:06;3.88;;;2.05;;
11618;SDS011;5865;48.776;9.280;2022-10-24T05:12:48;8.23;;;2.05;;
11618;SDS011;5865;48.776;9.280;2022-10-24T05:18:27;6.07;;;2.20;;
11618;SDS011;5865;48.776;9.280;2022-10-24T05:21:08;6.18;;;1.98;;
11618;SDS011;5865;48.776;9.280;2022-10-24T05:23:49;7.32;;;1.92;;
11618;SDS011;5865;48.776;9.280;2022-10-24T05:26:30;7.72;;;2.35;;
11618;SDS011;5865;48.776;9.280;2022-10-24T05:29:11;5.00;;;1.90;;
11618;SDS011;5865;48.776;9.280;2022-10-24T05:41:13;5.40;;;1.92;;
11618;SDS011;5865;48.776;9.280;2022-10-24T05:43:54;6.85;;;2.15;;
11618;SDS011;5865;48.776;9.280;2022-10-24T05:46:36;7.70;;;2.05;;
11618;SDS011;5865;48.776;9.280;2022-10-24T05:49:17;6.38;;;2.00;;
11618;SDS011;5865;48.776;9.280;2022-10-24T05:51:58;8.50;;;2.40;;
11618;SDS011;5865;48.776;9.280;2022-10-24T05:54:39;8.77;;;1.95;;
11618;SDS011;5865;48.776;9.280;2022-10-24T06:00:33;6.40;;;1.77;;
11618;SDS011;5865;48.776;9.280;2022-10-24T06:03:14;9.05;;;2.10;;
11618;SDS011;5865;48.776;9.280;2022-10-24T06:05:55;3.58;;;1.75;;
11618;SDS011;5865;48.776;9.280;2022-10-24T06:08:36;4.25;;;1.85;;
11618;SDS011;5865;48.776;9.280;2022-10-24T06:11:17;4.15;;;2.10;;
11618;SDS011;5865;48.776;9.280;2022-10-24T06:13:58;6.55;;;2.00;;
11618;SDS011;5865;48.776;9.280;2022-10-24T06:28:50;5.45;;;2.33;;
11618;SDS011;5865;48.776;9.280;2022-10-24T06:31:31;9.05;;;2.22;;
11618;SDS011;5865;48.776;9.280;2022-10-24T06:34:12;6.78;;;2.42;;
11618;SDS011;5865;48.776;9.280;2022-10-24T06:36:53;8.20;;;2.30;;
11618;SDS011;5865;48.776;9.280;2022-10-24T06:39:34;6.82;;;2.05;;
11618;SDS011;5865;48.776;9.280;2022-10-24T06:45:02;5.30;;;1.55;;
11618;SDS011;5865;48.776;9.280;2022-10-24T06:47:32;4.82;;;1.70;;
11618;SDS011;5865;48.776;9.280;2022-10-24T06:49:59;4.40;;;2.03;;
11618;SDS011;5865;48.776;9.280;2022-10-24T06:52:26;4.68;;;1.90;;
11618;SDS011;5865;48.776;9.280;2022-10-24T06:54:54;4.72;;;1.58;;
11618;SDS011;5865;48.776;9.280;2022-10-24T06:57:21;3.67;;;1.70;;
11618;SDS011;5865;48.776;9.280;2022-10-24T07:00:07;6.40;;;2.20;;
11618;SDS011;5865;48.776;9.280;2022-10-24T07:02:38;4.30;;;1.63;;
11618;SDS011;5865;48.776;9.280;2022-10-24T07:05:19;3.25;;;1.20;;
11618;SDS011;5865;48.776;9.280;2022-10-24T07:08:01;5.50;;;1.67;;
11618;SDS011;5865;48.776;9.280;2022-10-24T07:10:42;5.18;;;1.70;;
11618;SDS011;5865;48.776;9.280;2022-10-24T07:13:22;4.13;;;1.85;;
11618;SDS011;5865;48.776;9.280;2022-10-24T07:31:46;5.70;;;2.63;;
11618;SDS011;5865;48.776;9.280;2022-10-24T07:34:13;7.30;;;2.17;;
11618;SDS011;5865;48.776;9.280;2022-10-24T07:36:41;5.22;;;2.22;;
11618;SDS011;5865;48.776;9.280;2022-10-24T07:39:09;8.52;;;2.47;;
11618;SDS011;5865;48.776;9.280;2022-10-24T07:41:37;6.80;;;2.13;;
11618;SDS011;5865;48.776;9.280;2022-10-24T07:44:19;7.70;;;2.05;;
11618;SDS011;5865;48.776;9.280;2022-10-24T07:46:47;6.32;;;2.13;;
11618;SDS011;5865;48.776;9.280;2022-10-24T07:49:14;12.13;;;2.38;;
11618;SDS011;5865;48.776;9.280;2022-10-24T07:51:41;5.47;;;1.98;;
11618;SDS011;5865;48.776;9.280;2022-10-24T07:54:08;5.55;;;2.22;;
11618;SDS011;5865;48.776;9.280;2022-10-24T07:56:36;9.90;;;2.20;;
11618;SDS011;5865;48.776;9.280;2022-10-24T07:59:03;6.35;;;2.17;;
11618;SDS011;5865;48.776;9.280;2022-10-24T08:01:30;7.82;;;2.20;;
11618;SDS011;5865;48.776;9.280;2022-10-24T08:04:00;4.03;;;1.95;;
11618;SDS011;5865;48.776;9.280;2022-10-24T08:06:29;8.60;;;1.83;;
11618;SDS011;5865;48.776;9.280;2022-10-24T08:09:10;4.05;;;1.90;;
11618;SDS011;5865;48.776;9.280;2022-10-24T08:11:38;6.82;;;2.17;;
11618;SDS011;5865;48.776;9.280;2022-10-24T08:14:19;5.70;;;2.10;;
11618;SDS011;5865;48.776;9.280;2022-10-24T08:16:46;5.82;;;2.15;;
11618;SDS011;5865;48.776;9.280;2022-10-24T08:19:14;5.57;;;1.92;;
11618;SDS011;5865;48.776;9.280;2022-10-24T08:21:41;4.82;;;1.73;;
11618;SDS011;5865;48.776;9.280;2022-10-24T08:24:14;6.35;;;1.83;;
11618;SDS011;5865;48.776;9.280;2022-10-24T08:26:41;7.70;;;2.10;;
11618;SDS011;5865;48.776;9.280;2022-10-24T08:29:09;5.93;;;1.70;;
11618;SDS011;5865;48.776;9.280;2022-10-24T08:31:38;6.72;;;1.98;;
11618;SDS011;5865;48.776;9.280;2022-10-24T08:34:05;6.25;;;2.05;;
11618;SDS011;5865;48.776;9.280;2022-10-24T08:36:34;4.72;;;1.85;;
11618;SDS011;5865;48.776;9.280;2022-10-24T08:39:01;5.03;;;1.90;;
11618;SDS011;5865;48.776;9.280;2022-10-24T08:41:44;5.53;;;1.70;;
11618;SDS011;5865;48.776;9.280;2022-10-24T08:44:29;5.95;;;2.30;;
11618;SDS011;5865;48.776;9.280;2022-10-24T08:46:59;3.72;;;1.95;;
11618;SDS011;5865;48.776;9.280;2022-10-24T08:49:34;5.25;;;1.92;;
11618;SDS011;5865;48.776;9.280;2022-10-24T08:58:19;5.30;;;2.20;;
11618;SDS011;5865;48.776;9.280;2022-10-24T09:00:50;3.72;;;1.85;;
11618;SDS011;5865;48.776;9.280;2022-10-24T09:03:20;7.72;;;2.70;;
11618;SDS011;5865;48.776;9.280;2022-10-24T09:05:53;5.28;;;1.92;;
11618;SDS011;5865;48.776;9.280;2022-10-24T09:08:23;5.20;;;2.20;;
11618;SDS011;5865;48.776;9.280;2022-10-24T09:10:57;5.75;;;1.88;;
11618;SDS011;5865;48.776;9.280;2022-10-24T09:13:26;4.70;;;2.00;;
11618;SDS011;5865;48.776;9.280;2022-10-24T09:15:55;7.93;;;2.22;;
11618;SDS011;5865;48.776;9.280;2022-10-24T09:18:23;4.50;;;2.20;;
11618;SDS011;5865;48.776;9.280;2022-10-24T09:20:52;6.20;;;2.10;;
11618;SDS011;5865;48.776;9.280;2022-10-24T09:23:21;5.97;;;2.40;;
11618;SDS011;5865;48.776;9.280;2022-10-24T09:25:49;6.55;;;2.35;;
11618;SDS011;5865;48.776;9.280;2022-10-24T09:28:20;6.03;;;2.40;;
11618;SDS011;5865;48.776;9.280;2022-10-24T09:30:47;5.03;;;2.28;;
11618;SDS011;5865;48.776;9.280;2022-10-24T09:33:22;3.88;;;1.77;;
11618;SDS011;5865;48.776;9.280;2022-10-24T09:35:52;5.68;;;2.15;;
11618;SDS011;5865;48.776;9.280;2022-10-24T09:38:26;8.68;;;2.45;;
11618;SDS011;5865;48.776;9.280;2022-10-24T09:40:58;5.57;;;2.13;;
11618;SDS011;5865;48.776;9.280;2022-10-24T09:43:33;6.88;;;2.13;;
11618;SDS011;5865;48.776;9.280;2022-10-24T09:46:06;4.97;;;2.10;;
11618;SDS011;5865;48.776;9.280;2022-10-24T09:48:38;5.95;;;2.40;;
11618;SDS011;5865;48.776;9.280;2022-10-24T09:51:19;5.05;;;2.08;;
11618;SDS011;5865;48.776;9.280;2022-10-24T09:53:57;8.00;;;2.17;;
11618;SDS011;5865;48.776;9.280;2022-10-24T09:56:33;6.53;;;2.35;;
11618;SDS011;5865;48.776;9.280;2022-10-24T10:02:13;6.80;;;2.00;;
11618;SDS011;5865;48.776;9.280;2022-10-24T10:05:09;8.75;;;2.17;;
11618;SDS011;5865;48.776;9.280;2022-10-24T10:07:43;8.10;;;2.17;;
11618;SDS011;5865;48.776;9.280;2022-10-24T10:10:21;5.82;;;2.10;;
11618;SDS011;5865;48.776;9.280;2022-10-24T10:13:15;5.18;;;2.10;;
11618;SDS011;5865;48.776;9.280;2022-10-24T10:15:49;6.10;;;2.20;;
11618;SDS011;5865;48.776;9.280;2022-10-24T10:21:12;3.30;;;1.52;;
11618;SDS011;5865;48.776;9.280;2022-10-24T10:23:41;7.85;;;2.45;;
11618;SDS011;5865;48.776;9.280;2022-10-24T10:26:57;8.35;;;2.30;;
11618;SDS011;5865;48.776;9.280;2022-10-24T10:29:27;4.82;;;2.05;;
11618;SDS011;5865;48.776;9.280;2022-10-24T10:32:46;4.10;;;2.03;;
11618;SDS011;5865;48.776;9.280;2022-10-24T10:35:54;5.30;;;2.30;;
11618;SDS011;5865;48.776;9.280;2022-10-24T10:39:13;6.13;;;2.33;;
11618;SDS011;5865;48.776;9.280;2022-10-24T10:42:12;6.00;;;2.00;;
11618;SDS011;5865;48.776;9.280;2022-10-24T10:45:13;4.55;;;1.80;;
11618;SDS011;5865;48.776;9.280;2022-10-24T10:48:04;4.70;;;1.90;;
11618;SDS011;5865;48.776;9.280;2022-10-24T11:00:11;3.13;;;1.38;;
11618;SDS011;5865;48.776;9.280;2022-10-24T11:08:44;3.47;;;1.50;;
11618;SDS011;5865;48.776;9.280;2022-10-24T11:11:45;3.00;;;1.45;;
11618;SDS011;5865;48.776;9.280;2022-10-24T11:14:34;4.80;;;1.42;;
11618;SDS011;5865;48.776;9.280;2022-10-24T11:20:02;4.10;;;1.50;;
11618;SDS011;5865;48.776;9.280;2022-10-24T11:23:09;4.32;;;1.38;;
11618;SDS011;5865;48.776;9.280;2022-10-24T11:28:48;3.47;;;1.50;;
11618;SDS011;5865;48.776;9.280;2022-10-24T11:31:25;4.03;;;1.60;;
11618;SDS011;5865;48.776;9.280;2022-10-24T11:33:59;4.25;;;1.30;;
11618;SDS011;5865;48.776;9.280;2022-10-24T11:36:40;4.20;;;1.30;;
11618;SDS011;5865;48.776;9.280;2022-10-24T11:39:21;4.57;;;1.38;;
11618;SDS011;5865;48.776;9.280;2022-10-24T11:42:03;3.90;;;1.40;;
11618;SDS011;5865;48.776;9.280;2022-10-24T11:44:45;5.22;;;1.40;;
11618;SDS011;5865;48.776;9.280;2022-10-24T11:47:30;2.10;;;1.17;;
11618;SDS011;5865;48.776;9.280;2022-10-24T11:50:11;2.30;;;1.25;;
11618;SDS011;5865;48.776;9.280;2022-10-24T11:52:46;5.70;;;1.42;;
11618;SDS011;5865;48.776;9.280;2022-10-24T11:55:31;3.70;;;1.20;;
11618;SDS011;5865;48.776;9.280;2022-10-24T11:58:07;6.28;;;1.20;;
11618;SDS011;5865;48.776;9.280;2022-10-24T12:00:39;2.13;;;1.10;;
11618;SDS011;5865;48.776;9.280;2022-10-24T12:06:12;2.90;;;1.25;;
11618;SDS011;5865;48.776;9.280;2022-10-24T12:09:10;4.93;;;1.27;;
11618;SDS011;5865;48.776;9.280;2022-10-24T12:11:51;3.80;;;1.50;;
11618;SDS011;5865;48.776;9.280;2022-10-24T12:14:34;1.85;;;1.00;;
11618;SDS011;5865;48.776;9.280;2022-10-24T12:17:27;2.45;;;1.20;;
11618;SDS011;5865;48.776;9.280;2022-10-24T12:20:04;3.15;;;1.25;;
11618;SDS011;5865;48.776;9.280;2022-10-24T12:22:38;3.72;;;1.38;;
11618;SDS011;5865;48.776;9.280;2022-10-24T12:25:17;4.68;;;1.33;;
11618;SDS011;5865;48.776;9.280;2022-10-24T12:27:54;4.03;;;1.42;;
11618;SDS011;5865;48.776;9.280;2022-10-24T12:30:23;1.67;;;1.20;;
11618;SDS011;5865;48.776;9.280;2022-10-24T12:32:52;3.42;;;1.40;;
11618;SDS011;5865;48.776;9.280;2022-10-24T12:35:32;2.88;;;1.10;;
11618;SDS011;5865;48.776;9.280;2022-10-24T12:38:14;6.68;;;1.63;;
11618;SDS011;5865;48.776;9.280;2022-10-24T12:40:55;3.40;;;1.23;;
11618;SDS011;5865;48.776;9.280;2022-10-24T12:43:27;2.78;;;1.48;;
11618;SDS011;5865;48.776;9.280;2022-10-24T12:45:57;3.63;;;1.10;;
11618;SDS011;5865;48.776;9.280;2022-10-24T12:48:32;4.15;;;1.40;;
11618;SDS011;5865;48.776;9.280;2022-10-24T12:51:05;1.75;;;1.10;;
11618;SDS011;5865;48.776;9.280;2022-10-24T12:53:59;2.97;;;1.27;;
11618;SDS011;5865;48.776;9.280;2022-10-24T12:59:53;1.60;;;1.05;;
11618;SDS011;5865;48.776;9.280;2022-10-24T13:02:32;3.47;;;1.50;;
11618;SDS011;5865;48.776;9.280;2022-10-24T13:05:24;2.95;;;1.40;;
11618;SDS011;5865;48.776;9.280;2022-10-24T13:08:16;2.70;;;1.23;;
11618;SDS011;5865;48.776;9.280;2022-10-24T13:10:56;2.30;;;0.98;;
11618;SDS011;5865;48.776;9.280;2022-10-24T13:13:42;3.70;;;1.25;;
11618;SDS011;5865;48.776;9.280;2022-10-24T13:16:28;2.00;;;1.17;;
11618;SDS011;5865;48.776;9.280;2022-10-24T13:19:06;2.33;;;1.30;;
11618;SDS011;5865;48.776;9.280;2022-10-24T13:21:42;2.75;;;1.30;;
11618;SDS011;5865;48.776;9.280;2022-10-24T13:24:19;3.85;;;1.30;;
11618;SDS011;5865;48.776;9.280;2022-10-24T13:26:50;2.05;;;1.17;;
11618;SDS011;5865;48.776;9.280;2022-10-24T13:29:58;1.77;;;1.15;;
11618;SDS011;5865;48.776;9.280;2022-10-24T13:32:30;1.85;;;1.38;;
11618;SDS011;5865;48.776;9.280;2022-10-24T13:35:00;2.15;;;1.20;;
11618;SDS011;5865;48.776;9.280;2022-10-24T13:37:29;2.85;;;1.20;;
11618;SDS011;5865;48.776;9.280;2022-10-24T13:40:02;2.83;;;1.30;;
11618;SDS011;5865;48.776;9.280;2022-10-24T13:42:36;3.20;;;1.25;;
11618;SDS011;5865;48.776;9.280;2022-10-24T13:45:15;4.00;;;1.40;;
11618;SDS011;5865;48.776;9.280;2022-10-24T13:47:48;3.47;;;1.10;;
11618;SDS011;5865;48.776;9.280;2022-10-24T13:50:20;2.70;;;1.27;;
11618;SDS011;5865;48.776;9.280;2022-10-24T13:52:49;3.45;;;1.30;;
11618;SDS011;5865;48.776;9.280;2022-10-24T13:55:22;1.75;;;1.30;;
11618;SDS011;5865;48.776;9.280;2022-10-24T13:57:54;3.00;;;1.23;;
11618;SDS011;5865;48.776;9.280;2022-10-24T14:00:22;1.83;;;1.27;;
11618;SDS011;5865;48.776;9.280;2022-10-24T14:02:51;2.63;;;1.40;;
11618;SDS011;5865;48.776;9.280;2022-10-24T14:05:30;3.22;;;1.30;;
11618;SDS011;5865;48.776;9.280;2022-10-24T14:08:00;3.25;;;1.20;;
11618;SDS011;5865;48.776;9.280;2022-10-24T14:10:27;3.08;;;1.40;;
11618;SDS011;5865;48.776;9.280;2022-10-24T14:12:57;2.22;;;1.33;;
11618;SDS011;5865;48.776;9.280;2022-10-24T14:15:25;2.45;;;1.33;;
11618;SDS011;5865;48.776;9.280;2022-10-24T14:17:56;2.55;;;1.30;;
11618;SDS011;5865;48.776;9.280;2022-10-24T14:20:26;3.10;;;1.10;;
11618;SDS011;5865;48.776;9.280;2022-10-24T14:22:55;3.78;;;1.50;;
11618;SDS011;5865;48.776;9.280;2022-10-24T14:25:23;2.75;;;1.23;;
11618;SDS011;5865;48.776;9.280;2022-10-24T14:27:53;2.72;;;1.30;;
11618;SDS011;5865;48.776;9.280;2022-10-24T14:30:25;1.30;;;1.20;;
11618;SDS011;5865;48.776;9.280;2022-10-24T14:33:06;1.98;;;1.50;;
11618;SDS011;5865;48.776;9.280;2022-10-24T14:35:48;3.15;;;1.30;;
11618;SDS011;5865;48.776;9.280;2022-10-24T14:38:15;2.03;;;1.33;;
11618;SDS011;5865;48.776;9.280;2022-10-24T14:40:43;2.97;;;1.63;;
11618;SDS011;5865;48.776;9.280;2022-10-24T14:43:12;3.13;;;1.45;;
11618;SDS011;5865;48.776;9.280;2022-10-24T14:45:52;2.28;;;1.20;;
11618;SDS011;5865;48.776;9.280;2022-10-24T14:48:28;1.73;;;1.15;;
11618;SDS011;5865;48.776;9.280;2022-10-24T14:51:00;3.72;;;1.40;;
11618;SDS011;5865;48.776;9.280;2022-10-24T14:53:28;2.35;;;1.20;;
11618;SDS011;5865;48.776;9.280;2022-10-24T14:55:56;3.58;;;1.27;;
11618;SDS011;5865;48.776;9.280;2022-10-24T14:58:25;2.00;;;1.20;;
11618;SDS011;5865;48.776;9.280;2022-10-24T15:00:56;2.85;;;1.10;;
11618;SDS011;5865;48.776;9.280;2022-10-24T15:03:24;3.65;;;1.20;;
11618;SDS011;5865;48.776;9.280;2022-10-24T15:05:52;3.60;;;1.00;;
11618;SDS011;5865;48.776;9.280;2022-10-24T15:08:25;2.08;;;1.15;;
11618;SDS011;5865;48.776;9.280;2022-10-24T15:11:03;1.83;;;1.20;;
11618;SDS011;5865;48.776;9.280;2022-10-24T15:13:32;1.90;;;1.05;;
11618;SDS011;5865;48.776;9.280;2022-10-24T15:16:17;2.80;;;1.40;;
11618;SDS011;5865;48.776;9.280;2022-10-24T15:18:47;2.17;;;1.17;;
11618;SDS011;5865;48.776;9.280;2022-10-24T15:21:19;2.33;;;1.13;;
11618;SDS011;5865;48.776;9.280;2022-10-24T15:23:48;3.40;;;1.63;;
11618;SDS011;5865;48.776;9.280;2022-10-24T15:26:19;4.03;;;1.02;;
11618;SDS011;5865;48.776;9.280;2022-10-24T15:28:53;2.40;;;1.10;;
11618;SDS011;5865;48.776;9.280;2022-10-24T15:31:23;2.95;;;1.20;;
11618;SDS011;5865;48.776;9.280;2022-10-24T15:33:51;3.03;;;1.35;;
11618;SDS011;5865;48.776;9.280;2022-10-24T15:36:19;2.50;;;1.40;;
11618;SDS011;5865;48.776;9.280;2022-10-24T15:38:48;3.53;;;1.20;;
11618;SDS011;5865;48.776;9.280;2022-10-24T15:41:19;2.50;;;1.48;;
11618;SDS011;5865;48.776;9.280;2022-10-24T15:43:46;4.03;;;1.98;;
11618;SDS011;5865;48.776;9.280;2022-10-24T15:46:13;3.80;;;1.60;;
11618;SDS011;5865;48.776;9.280;2022-10-24T15:48:41;2.28;;;1.42;;
11618;SDS011;5865;48.776;9.280;2022-10-24T15:51:10;1.25;;;1.15;;
11618;SDS011;5865;48.776;9.280;2022-10-24T15:53:41;5.07;;;1.48;;
11618;SDS011;5865;48.776;9.280;2022-10-24T15:56:08;1.20;;;1.15;;
11618;SDS011;5865;48.776;9.280;2022-10-24T15:58:36;4.30;;;1.48;;
11618;SDS011;5865;48.776;9.280;2022-10-24T16:01:04;2.30;;;1.40;;
11618;SDS011;5865;48.776;9.280;2022-10-24T16:03:31;1.92;;;1.40;;
11618;SDS011;5865;48.776;9.280;2022-10-24T16:06:02;7.93;;;1.63;;
11618;SDS011;5865;48.776;9.280;2022-10-24T16:08:29;3.05;;;1.10;;
11618;SDS011;5865;48.776;9.280;2022-10-24T16:10:56;2.78;;;1.40;;
11618;SDS011;5865;48.776;9.280;2022-10-24T16:13:23;2.47;;;1.33;;
11618;SDS011;5865;48.776;9.280;2022-10-24T16:15:50;3.00;;;1.50;;
11618;SDS011;5865;48.776;9.280;2022-10-24T16:18:17;4.13;;;1.35;;
11618;SDS011;5865;48.776;9.280;2022-10-24T16:20:44;3.88;;;1.30;;
11618;SDS011;5865;48.776;9.280;2022-10-24T16:23:14;6.43;;;1.42;;
11618;SDS011;5865;48.776;9.280;2022-10-24T16:25:49;2.65;;;1.50;;
11618;SDS011;5865;48.776;9.280;2022-10-24T16:28:29;2.45;;;1.40;;
11618;SDS011;5865;48.776;9.280;2022-10-24T16:31:32;2.67;;;1.30;;
11618;SDS011;5865;48.776;9.280;2022-10-24T16:34:25;3.15;;;1.60;;
11618;SDS011;5865;48.776;9.280;2022-10-24T16:37:56;4.65;;;1.30;;
11618;SDS011;5865;48.776;9.280;2022-10-24T17:17:48;2.90;;;1.40;;
11618;SDS011;5865;48.776;9.280;2022-10-24T17:20:15;2.88;;;1.77;;
11618;SDS011;5865;48.776;9.280;2022-10-24T17:22:43;3.53;;;1.40;;
11618;SDS011;5865;48.776;9.280;2022-10-24T17:25:14;2.88;;;1.80;;
11618;SDS011;5865;48.776;9.280;2022-10-24T17:27:45;4.63;;;1.80;;
11618;SDS011;5865;48.776;9.280;2022-10-24T17:30:13;4.65;;;1.80;;
11618;SDS011;5865;48.776;9.280;2022-10-24T17:32:42;2.58;;;1.73;;
11618;SDS011;5865;48.776;9.280;2022-10-24T17:35:11;3.40;;;1.70;;
11618;SDS011;5865;48.776;9.280;2022-10-24T17:37:41;3.47;;;1.80;;
11618;SDS011;5865;48.776;9.280;2022-10-24T17:40:18;4.45;;;1.92;;
11618;SDS011;5865;48.776;9.280;2022-10-24T17:42:46;4.10;;;1.80;;
11618;SDS011;5865;48.776;9.280;2022-10-24T17:45:14;3.35;;;1.60;;
11618;SDS011;5865;48.776;9.280;2022-10-24T17:47:43;4.95;;;1.60;;
11618;SDS011;5865;48.776;9.280;2022-10-24T17:50:11;5.95;;;1.90;;
11618;SDS011;5865;48.776;9.280;2022-10-24T17:52:39;4.85;;;1.65;;
11618;SDS011;5865;48.776;9.280;2022-10-24T17:55:20;3.78;;;2.00;;
11618;SDS011;5865;48.776;9.280;2022-10-24T17:57:48;5.03;;;2.10;;
11618;SDS011;5865;48.776;9.280;2022-10-24T18:00:15;3.65;;;2.22;;
11618;SDS011;5865;48.776;9.280;2022-10-24T18:02:43;4.60;;;2.17;;
11618;SDS011;5865;48.776;9.280;2022-10-24T18:05:12;4.13;;;2.58;;
11618;SDS011;5865;48.776;9.280;2022-10-24T18:07:41;4.95;;;2.63;;
11618;SDS011;5865;48.776;9.280;2022-10-24T18:10:08;2.50;;;1.95;;
11618;SDS011;5865;48.776;9.280;2022-10-24T18:12:36;5.38;;;2.53;;
11618;SDS011;5865;48.776;9.280;2022-10-24T18:15:05;3.50;;;2.30;;
11618;SDS011;5865;48.776;9.280;2022-10-24T18:17:33;3.17;;;2.15;;
11618;SDS011;5865;48.776;9.280;2022-10-24T18:20:00;4.60;;;2.78;;
11618;SDS011;5865;48.776;9.280;2022-10-24T18:22:29;1.23;;;0.95;;
11618;SDS011;5865;48.776;9.280;2022-10-24T18:24:57;2.63;;;0.70;;
11618;SDS011;5865;48.776;9.280;2022-10-24T18:27:24;2.13;;;0.90;;
11618;SDS011;5865;48.776;9.280;2022-10-24T18:29:51;3.50;;;0.80;;
11618;SDS011;5865;48.776;9.280;2022-10-24T18:32:19;2.27;;;0.77;;
11618;SDS011;5865;48.776;9.280;2022-10-24T18:34:46;3.47;;;1.00;;
11618;SDS011;5865;48.776;9.280;2022-10-24T18:37:13;2.13;;;0.80;;
11618;SDS011;5865;48.776;9.280;2022-10-24T18:39:42;0.83;;;0.80;;
11618;SDS011;5865;48.776;9.280;2022-10-24T18:42:11;4.70;;;1.10;;
11618;SDS011;5865;48.776;9.280;2022-10-24T18:44:49;2.70;;;1.30;;
11618;SDS011;5865;48.776;9.280;2022-10-24T18:47:17;2.83;;;1.07;;
11618;SDS011;5865;48.776;9.280;2022-10-24T18:49:45;1.77;;;0.90;;
11618;SDS011;5865;48.776;9.280;2022-10-24T18:52:15;2.13;;;1.20;;
11618;SDS011;5865;48.776;9.280;2022-10-24T18:54:51;1.70;;;0.93;;
11618;SDS011;5865;48.776;9.280;2022-10-24T18:57:26;3.13;;;1.10;;
11618;SDS011;5865;48.776;9.280;2022-10-24T18:59:56;1.40;;;1.10;;
11618;SDS011;5865;48.776;9.280;2022-10-24T19:02:25;0.93;;;0.80;;
11618;SDS011;5865;48.776;9.280;2022-10-24T19:05:01;3.03;;;1.03;;
11618;SDS011;5865;48.776;9.280;2022-10-24T19:07:32;2.73;;;0.90;;
11618;SDS011;5865;48.776;9.280;2022-10-24T19:10:00;2.73;;;1.30;;
11618;SDS011;5865;48.776;9.280;2022-10-24T19:12:28;3.70;;;1.13;;
11618;SDS011;5865;48.776;9.280;2022-10-24T19:14:55;3.37;;;1.10;;
11618;SDS011;5865;48.776;9.280;2022-10-24T19:17:22;2.27;;;1.30;;
11618;SDS011;5865;48.776;9.280;2022-10-24T19:19:50;4.60;;;1.50;;
11618;SDS011;5865;48.776;9.280;2022-10-24T19:22:18;4.17;;;1.60;;
11618;SDS011;5865;48.776;9.280;2022-10-24T19:24:46;2.13;;;1.43;;
11618;SDS011;5865;48.776;9.280;2022-10-24T19:27:14;1.33;;;1.00;;
11618;SDS011;5865;48.776;9.280;2022-10-24T19:29:41;2.50;;;0.90;;
11618;SDS011;5865;48.776;9.280;2022-10-24T19:32:08;2.33;;;1.10;;
11618;SDS011;5865;48.776;9.280;2022-10-24T19:34:36;0.80;;;0.70;;
11618;SDS011;5865;48.776;9.280;2022-10-24T19:37:06;1.97;;;1.20;;
11618;SDS011;5865;48.776;9.280;2022-10-24T19:39:34;1.83;;;1.10;;
11618;SDS011;5865;48.776;9.280;2022-10-24T19:42:01;1.93;;;0.90;;
11618;SDS011;5865;48.776;9.280;2022-10-24T19:44:29;2.13;;;0.97;;
11618;SDS011;5865;48.776;9.280;2022-10-24T19:46:56;2.40;;;1.13;;
11618;SDS011;5865;48.776;9.280;2022-10-24T19:49:24;1.10;;;0.80;;
11618;SDS011;5865;48.776;9.280;2022-10-24T19:51:51;0.80;;;0.70;;
11618;SDS011;5865;48.776;9.280;2022-10-24T19:54:19;1.20;;;0.80;;
11618;SDS011;5865;48.776;9.280;2022-10-24T19:56:46;2.30;;;1.20;;